Time;durP1;ratioP1;P1;durP2;ratioP2;P2;SDS_P1;SDS_P2;PMS_P1;PMS_P2;Temp;Humidity;BMP_temperature;BMP_pressure;BME280_temperature;BME280_humidity;BME280_pressure;Samples;Min_cycle;Max_cycle;Signal;HPM_P1;HPM_P2
2023/03/24 00:01:17;;;;;;;5.75;2.92;;;;;;;10.78;100.00;99851.13;6215824;23;20012;-72
2023/03/24 00:03:47;;;;;;;7.55;3.33;;;;;;;10.77;100.00;99847.72;6215421;23;20007;-76
2023/03/24 00:06:13;;;;;;;6.10;2.83;;;;;;;10.63;100.00;99817.84;6215527;23;20011;-74
2023/03/24 00:08:40;;;;;;;7.47;2.88;;;;;;;10.77;100.00;99832.22;6214930;23;20438;-75
2023/03/24 00:11:10;;;;;;;6.78;3.28;;;;;;;10.76;100.00;99834.94;6215522;23;20079;-74
2023/03/24 00:13:39;;;;;;;6.57;2.90;;;;;;;10.77;100.00;99836.56;6215920;23;20011;-75
2023/03/24 00:16:05;;;;;;;6.25;2.92;;;;;;;10.68;100.00;99814.06;6217453;23;20032;-74
2023/03/24 00:18:31;;;;;;;4.90;3.10;;;;;;;10.65;100.00;99804.81;6217560;23;20418;-76
2023/03/24 00:20:57;;;;;;;7.45;3.20;;;;;;;10.80;100.00;99828.56;6217482;23;20035;-75
2023/03/24 00:23:26;;;;;;;7.70;3.25;;;;;;;10.82;100.00;99814.63;6217044;23;20008;-76
2023/03/24 00:26:04;;;;;;;6.65;3.00;;;;;;;10.85;100.00;99818.72;6217925;23;20020;-77
2023/03/24 00:28:32;;;;;;;7.00;2.70;;;;;;;10.67;100.00;99782.25;6217348;23;20051;-75
2023/03/24 00:31:00;;;;;;;7.00;3.33;;;;;;;10.70;100.00;99788.94;6217213;23;20462;-73
2023/03/24 00:33:27;;;;;;;5.95;2.90;;;;;;;10.96;100.00;99823.00;6217477;23;20079;-78
2023/03/24 00:35:53;;;;;;;7.30;3.10;;;;;;;10.95;100.00;99803.28;6217842;23;20000;-79
2023/03/24 00:38:18;;;;;;;6.97;2.97;;;;;;;10.99;100.00;99800.31;6217309;23;20019;-79
2023/03/24 00:40:45;;;;;;;7.82;3.47;;;;;;;11.10;100.00;99804.63;6217856;23;20005;-76
2023/03/24 00:43:12;;;;;;;4.57;2.58;;;;;;;11.12;100.00;99805.34;6217592;23;20000;-79
2023/03/24 00:45:44;;;;;;;6.68;2.75;;;;;;;11.17;100.00;99798.00;6217319;23;20009;-76
2023/03/24 00:48:11;;;;;;;6.05;2.75;;;;;;;11.16;100.00;99781.69;6217354;23;20005;-74
2023/03/24 00:50:36;;;;;;;6.82;3.05;;;;;;;11.22;100.00;99785.56;6217237;23;20448;-79
2023/03/24 00:53:01;;;;;;;5.88;2.72;;;;;;;11.12;100.00;99762.22;6217639;23;20084;-75
2023/03/24 00:55:27;;;;;;;3.55;2.25;;;;;;;11.31;100.00;99786.56;6217667;23;20407;-74
2023/03/24 00:57:53;;;;;;;6.57;2.70;;;;;;;11.32;100.00;99788.19;6217212;23;20078;-74
2023/03/24 01:00:22;;;;;;;5.43;2.55;;;;;;;11.36;100.00;99776.66;6217335;23;20005;-74
2023/03/24 01:02:52;;;;;;;5.55;2.60;;;;;;;11.37;100.00;99768.75;6217108;23;20001;-78
2023/03/24 01:05:19;;;;;;;6.65;2.80;;;;;;;11.35;100.00;99755.16;6217173;23;20000;-77
2023/03/24 01:07:50;;;;;;;5.15;2.53;;;;;;;11.32;100.00;99749.44;6216863;23;20418;-72
2023/03/24 01:10:18;;;;;;;3.35;2.10;;;;;;;11.41;100.00;99757.25;6217068;23;20070;-75
2023/03/24 01:12:44;;;;;;;7.18;2.65;;;;;;;11.36;100.00;99745.63;6217354;23;20366;-75
2023/03/24 01:15:16;;;;;;;5.03;2.53;;;;;;;11.42;100.00;99760.63;6217116;23;20004;-76
2023/03/24 01:17:42;;;;;;;5.88;2.58;;;;;;;11.42;100.00;99769.22;6217248;23;20383;-78
2023/03/24 01:20:10;;;;;;;5.90;2.63;;;;;;;11.25;100.00;99725.03;6217053;23;20074;-77
2023/03/24 01:22:43;;;;;;;5.50;2.65;;;;;;;11.36;100.00;99746.44;6217176;23;20422;-78
2023/03/24 01:25:18;;;;;;;6.82;3.00;;;;;;;11.39;100.00;99753.94;6216399;23;20007;-75
2023/03/24 01:27:45;;;;;;;5.22;2.65;;;;;;;11.35;100.00;99751.75;6216724;23;20091;-72
2023/03/24 01:30:14;;;;;;;4.72;2.63;;;;;;;11.24;100.00;99744.88;6217037;23;20078;-76
2023/03/24 01:32:39;;;;;;;5.43;2.58;;;;;;;11.29;100.00;99745.31;6216942;23;20008;-75
2023/03/24 01:35:05;;;;;;;6.55;3.13;;;;;;;11.18;100.00;99730.69;6217718;23;20036;-78
2023/03/24 01:37:30;;;;;;;6.00;2.60;;;;;;;11.08;100.00;99722.06;6217242;23;20008;-76
2023/03/24 01:39:56;;;;;;;5.50;2.83;;;;;;;11.15;100.00;99738.72;6216481;23;20469;-76
2023/03/24 01:42:24;;;;;;;6.60;3.00;;;;;;;11.11;100.00;99736.50;6217171;23;20330;-74
2023/03/24 01:44:52;;;;;;;3.88;2.25;;;;;;;10.91;100.00;99714.88;6217071;23;20000;-74
2023/03/24 01:47:18;;;;;;;4.38;2.60;;;;;;;11.01;100.00;99725.28;6216836;23;20000;-73
2023/03/24 01:49:51;;;;;;;7.00;2.92;;;;;;;11.00;100.00;99734.78;6216627;23;20062;-75
2023/03/24 01:52:31;;;;;;;4.85;2.70;;;;;;;11.00;100.00;99729.63;6216676;23;20005;-73
2023/03/24 01:55:06;;;;;;;5.10;2.58;;;;;;;11.00;100.00;99727.03;6216867;23;20378;-76
2023/03/24 01:57:39;;;;;;;4.55;2.55;;;;;;;10.88;100.00;99707.41;6216787;23;20011;-73
2023/03/24 02:00:09;;;;;;;5.55;3.03;;;;;;;10.99;100.00;99715.09;6216675;23;20013;-79
2023/03/24 02:02:35;;;;;;;5.65;2.83;;;;;;;10.79;100.00;99682.31;6216773;23;20007;-80
2023/03/24 02:05:06;;;;;;;5.97;3.25;;;;;;;11.02;100.00;99703.69;6216638;23;20005;-73
2023/03/24 02:07:37;;;;;;;6.88;2.90;;;;;;;11.03;100.00;99716.47;6216826;23;20028;-77
2023/03/24 02:10:11;;;;;;;5.90;2.88;;;;;;;11.00;100.00;99705.56;6216056;23;20064;-71
2023/03/24 02:12:37;;;;;;;5.03;3.13;;;;;;;11.00;100.00;99716.72;6216553;23;20036;-78
2023/03/24 02:15:04;;;;;;;5.18;3.03;;;;;;;10.99;100.00;99712.50;6216824;23;20427;-79
2023/03/24 02:17:47;;;;;;;5.22;3.00;;;;;;;10.94;100.00;99701.75;6216598;23;20080;-79
2023/03/24 02:20:43;;;;;;;6.03;2.95;;;;;;;10.91;100.00;99712.31;6216595;23;20330;-77
2023/03/24 02:23:42;;;;;;;5.82;3.33;;;;;;;10.89;100.00;99711.63;6216267;23;20004;-73
2023/03/24 02:26:25;;;;;;;7.25;2.88;;;;;;;10.89;100.00;99716.78;6216144;23;20361;-73
2023/03/24 02:29:02;;;;;;;7.00;3.38;;;;;;;10.87;100.00;99716.91;6216394;23;20009;-72
2023/03/24 02:31:52;;;;;;;6.78;3.22;;;;;;;10.81;100.00;99714.81;6216570;23;20009;-72
2023/03/24 02:34:48;;;;;;;7.78;3.63;;;;;;;10.74;100.00;99718.03;6216616;23;20004;-72
2023/03/24 02:37:17;;;;;;;8.20;4.10;;;;;;;10.80;100.00;99720.13;6216341;23;20011;-74
2023/03/24 02:39:45;;;;;;;7.47;3.88;;;;;;;10.78;100.00;99711.69;6216220;23;20031;-73
2023/03/24 02:42:25;;;;;;;6.15;3.45;;;;;;;10.77;100.00;99707.47;6216388;23;20009;-73
2023/03/24 02:44:55;;;;;;;6.18;3.25;;;;;;;10.71;100.00;99702.78;6216418;23;20005;-74
2023/03/24 02:47:42;;;;;;;7.63;3.30;;;;;;;10.76;100.00;99704.06;6216349;23;20054;-74
2023/03/24 02:50:50;;;;;;;6.45;3.83;;;;;;;10.77;100.00;99721.19;6215974;23;20256;-73
2023/03/24 02:53:20;;;;;;;6.30;3.65;;;;;;;10.81;100.00;99719.16;6095344;23;20014;-73
2023/03/24 02:56:08;;;;;;;6.95;3.72;;;;;;;10.82;100.00;99734.56;6095091;23;20093;-72
2023/03/24 02:58:40;;;;;;;8.40;4.35;;;;;;;10.83;100.00;99735.38;5981230;24;20511;-72
2023/03/24 03:01:17;;;;;;;;;;;;;;;10.83;100.00;99731.03;5981554;24;20012;-72
2023/03/24 03:03:56;;;;;;;8.15;4.00;;;;;;;10.88;100.00;99743.56;5981170;23;19946;-73
2023/03/24 03:06:32;;;;;;;6.40;3.83;;;;;;;10.84;100.00;99747.34;5980938;24;20100;-74
2023/03/24 03:09:03;;;;;;;6.72;3.65;;;;;;;10.97;100.00;99775.56;5957404;24;20043;-74
2023/03/24 03:11:28;;;;;;;6.90;3.58;;;;;;;10.85;100.00;99767.06;5958498;24;20008;-72
2023/03/24 03:14:07;;;;;;;4.78;2.65;;;;;;;10.90;100.00;99783.81;5957731;24;20014;-74
2023/03/24 03:16:39;;;;;;;4.22;1.90;;;;;;;10.78;100.00;99777.06;5958300;24;20012;-73
2023/03/24 03:19:25;;;;;;;;;;;;;;;10.82;100.00;99798.31;5981582;24;20044;-74
2023/03/24 03:21:52;;;;;;;1.90;1.00;;;;;;;10.58;100.00;99806.22;5980630;24;19965;-74
2023/03/24 03:24:25;;;;;;;2.17;0.98;;;;;;;10.52;100.00;99809.28;5980826;24;20004;-74
2023/03/24 03:26:56;;;;;;;2.50;1.08;;;;;;;10.33;100.00;99815.09;5956970;24;20035;-73
2023/03/24 03:29:27;;;;;;;6.72;1.35;;;;;;;10.26;100.00;99819.91;5992195;23;20019;-72
2023/03/24 03:32:06;;;;;;;2.67;1.17;;;;;;;10.15;100.00;99837.94;6066099;23;20099;-74
2023/03/24 03:34:55;;;;;;;4.95;1.08;;;;;;;10.01;100.00;99828.66;6071920;23;20034;-74
2023/03/24 03:37:44;;;;;;;2.53;0.80;;;;;;;9.92;100.00;99849.19;6214961;23;20031;-73
2023/03/24 03:40:18;;;;;;;4.15;1.23;;;;;;;9.76;100.00;99859.84;6216040;23;20015;-73
2023/03/24 03:42:45;;;;;;;6.15;1.33;;;;;;;9.76;100.00;99875.31;6215952;23;20001;-74
2023/03/24 03:45:11;;;;;;;6.38;1.33;;;;;;;9.72;100.00;99887.59;6215623;23;20054;-76
2023/03/24 03:47:36;;;;;;;6.63;1.27;;;;;;;9.67;100.00;99886.31;6215441;23;20000;-76
2023/03/24 03:50:03;;;;;;;5.95;1.83;;;;;;;9.61;100.00;99890.16;6215415;23;20011;-75
2023/03/24 03:52:29;;;;;;;3.55;1.88;;;;;;;9.60;100.00;99898.81;6215608;23;20008;-74
2023/03/24 03:54:55;;;;;;;5.35;1.83;;;;;;;9.32;100.00;99845.91;6216037;23;20008;-75
2023/03/24 03:57:21;;;;;;;6.55;2.03;;;;;;;9.59;100.00;99888.63;6215901;23;20082;-78
2023/03/24 03:59:47;;;;;;;7.03;2.38;;;;;;;9.50;100.00;99895.28;6215451;23;20024;-74
2023/03/24 04:02:34;;;;;;;6.68;1.95;;;;;;;9.41;100.00;99903.66;6215810;23;20001;-75
2023/03/24 04:05:09;;;;;;;6.95;2.45;;;;;;;9.32;100.00;99909.50;6215617;23;20009;-74
2023/03/24 04:07:45;;;;;;;4.75;1.88;;;;;;;9.23;100.00;99910.97;6215700;23;20055;-74
2023/03/24 04:10:29;;;;;;;6.80;2.08;;;;;;;9.08;100.00;99906.94;6215243;23;20044;-73
2023/03/24 04:13:04;;;;;;;9.77;2.90;;;;;;;9.14;100.00;99925.34;6215298;23;20442;-72
2023/03/24 04:15:36;;;;;;;8.50;3.05;;;;;;;9.15;100.00;99934.72;6215703;23;20004;-75
2023/03/24 04:18:33;;;;;;;8.27;4.38;;;;;;;9.18;100.00;99934.50;6215519;23;20000;-78
2023/03/24 04:21:27;;;;;;;10.15;4.03;;;;;;;9.30;100.00;99937.13;6215899;23;20039;-76
2023/03/24 04:24:12;;;;;;;9.57;5.00;;;;;;;9.36;100.00;99945.25;6189294;23;20008;-78
2023/03/24 04:26:59;;;;;;;7.50;3.35;;;;;;;9.39;100.00;99962.22;6214476;23;20005;-73
2023/03/24 04:29:32;;;;;;;11.18;3.63;;;;;;;9.40;100.00;99974.19;6215051;23;20055;-77
2023/03/24 04:31:57;;;;;;;12.02;3.60;;;;;;;9.35;100.00;99971.13;6215699;23;20083;-72
2023/03/24 04:34:32;;;;;;;8.82;3.40;;;;;;;9.28;100.00;99965.59;6215873;23;20028;-72
2023/03/24 04:37:04;;;;;;;10.07;3.60;;;;;;;9.24;100.00;99971.88;6215841;23;20347;-78
2023/03/24 04:39:34;;;;;;;11.18;4.07;;;;;;;9.14;100.00;99956.28;6188838;23;20001;-75
2023/03/24 04:42:04;;;;;;;10.85;3.38;;;;;;;9.24;100.00;99978.78;6215321;23;20011;-71
2023/03/24 04:44:31;;;;;;;11.48;3.63;;;;;;;9.17;100.00;99993.84;6215745;23;20000;-72
2023/03/24 04:46:59;;;;;;;11.20;3.67;;;;;;;9.08;100.00;99987.59;6215441;23;20001;-72
2023/03/24 04:49:26;;;;;;;10.23;3.75;;;;;;;8.97;100.00;99984.94;6215296;23;20078;-72
2023/03/24 04:51:51;;;;;;;10.45;3.30;;;;;;;8.17;100.00;99871.22;6266996;22;20090;-72
2023/03/24 04:54:18;;;;;;;9.30;3.22;;;;;;;8.83;100.00;99991.03;6249777;22;20349;-71
2023/03/24 04:56:46;;;;;;;9.02;3.22;;;;;;;8.71;100.00;99979.03;6276054;22;20014;-71
2023/03/24 04:59:12;;;;;;;12.38;3.17;;;;;;;8.71;100.00;99998.78;6276602;22;20007;-71
2023/03/24 05:01:38;;;;;;;11.38;3.28;;;;;;;8.67;100.00;99999.94;6249434;22;20014;-72
2023/03/24 05:04:07;;;;;;;12.02;3.50;;;;;;;7.62;100.00;99831.22;6277316;22;20079;-74
2023/03/24 05:06:33;;;;;;;7.93;2.90;;;;;;;8.60;100.00;99996.94;6278202;22;20023;-72
2023/03/24 05:09:05;;;;;;;11.07;2.90;;;;;;;8.44;100.00;99992.00;6278000;22;20007;-74
2023/03/24 05:11:31;;;;;;;8.43;2.53;;;;;;;8.49;100.00;100002.00;6278555;22;20007;-72
2023/03/24 05:13:56;;;;;;;10.32;2.67;;;;;;;8.44;100.00;99998.91;6278038;22;20074;-72
2023/03/24 05:16:21;;;;;;;8.65;2.40;;;;;;;8.42;100.00;100003.34;6278473;22;20070;-73
2023/03/24 05:18:46;;;;;;;8.57;2.70;;;;;;;8.24;100.00;99984.78;6250852;22;20085;-73
2023/03/24 05:21:12;;;;;;;10.90;2.40;;;;;;;8.42;100.00;100017.03;6251147;22;20330;-75
2023/03/24 05:23:37;;;;;;;11.18;3.05;;;;;;;8.38;100.00;100019.91;6278444;22;20484;-74
2023/03/24 05:26:04;;;;;;;10.85;3.03;;;;;;;8.38;100.00;100030.19;6277832;22;20325;-73
2023/03/24 05:28:29;;;;;;;11.82;3.40;;;;;;;8.35;100.00;100018.34;6277651;22;20000;-76
2023/03/24 05:30:54;;;;;;;9.48;3.28;;;;;;;8.32;100.00;100014.22;6278054;22;20007;-75
2023/03/24 05:33:20;;;;;;;9.45;2.60;;;;;;;8.52;100.00;100038.63;6250874;22;20003;-73
2023/03/24 05:35:45;;;;;;;11.00;3.10;;;;;;;8.53;100.00;100040.28;6277925;22;20085;-78
2023/03/24 05:38:11;;;;;;;13.48;3.92;;;;;;;8.13;100.00;99979.53;6277788;22;19999;-73
2023/03/24 05:40:36;;;;;;;10.60;3.25;;;;;;;8.54;100.00;100048.81;6278052;22;20008;-79
2023/03/24 05:43:01;;;;;;;14.30;4.28;;;;;;;8.53;100.00;100044.59;6277738;22;20004;-74
2023/03/24 05:45:28;;;;;;;12.75;3.28;;;;;;;8.54;100.00;100052.22;6250437;22;20046;-72
2023/03/24 05:47:54;;;;;;;12.15;3.55;;;;;;;8.58;100.00;100052.84;6278196;22;19999;-73
2023/03/24 05:50:19;;;;;;;14.57;4.55;;;;;;;8.58;100.00;100052.84;6249929;22;20011;-73
2023/03/24 05:52:45;;;;;;;12.18;4.20;;;;;;;8.55;100.00;100059.03;6249678;22;20008;-72
2023/03/24 05:55:10;;;;;;;12.30;3.92;;;;;;;8.47;100.00;100035.56;6277784;22;20074;-79
2023/03/24 05:57:35;;;;;;;13.18;4.55;;;;;;;8.47;100.00;100039.88;6277588;22;20015;-78
2023/03/24 06:00:08;;;;;;;15.40;3.80;;;;;;;8.58;100.00;100055.44;6277667;22;19999;-74
2023/03/24 06:02:33;;;;;;;12.70;4.63;;;;;;;8.60;100.00;100064.69;6250637;22;20433;-77
2023/03/24 06:05:00;;;;;;;10.90;3.85;;;;;;;8.61;100.00;100062.94;6277281;22;20007;-72
2023/03/24 06:07:29;;;;;;;11.50;3.95;;;;;;;8.61;100.00;100058.59;6277848;22;20366;-77
2023/03/24 06:09:56;;;;;;;13.70;3.50;;;;;;;8.62;100.00;100067.97;6277384;22;20421;-77
2023/03/24 06:12:22;;;;;;;11.95;3.75;;;;;;;8.66;100.00;100067.78;6277516;22;20137;-74
2023/03/24 06:14:48;;;;;;;12.85;2.90;;;;;;;8.56;100.00;100044.41;6277773;22;20437;-73
2023/03/24 06:17:13;;;;;;;8.70;3.33;;;;;;;8.73;100.00;100059.53;6277776;22;20010;-74
2023/03/24 06:19:48;;;;;;;10.68;3.47;;;;;;;8.77;100.00;100066.13;6277469;22;20075;-72
2023/03/24 06:22:14;;;;;;;12.52;3.28;;;;;;;8.80;100.00;100072.81;6277318;22;20074;-73
2023/03/24 06:24:39;;;;;;;13.02;4.20;;;;;;;8.84;100.00;100074.25;6277638;22;20010;-78
2023/03/24 06:27:07;;;;;;;15.95;4.07;;;;;;;8.88;100.00;100089.41;6277591;22;20078;-74
2023/03/24 06:29:33;;;;;;;12.52;3.38;;;;;;;8.93;100.00;100085.69;6277003;22;20007;-75
2023/03/24 06:31:59;;;;;;;11.77;3.30;;;;;;;8.93;100.00;100081.34;6277699;22;20007;-79
2023/03/24 06:34:25;;;;;;;11.45;2.58;;;;;;;8.90;100.00;100079.81;6277730;22;20004;-74
2023/03/24 06:36:51;;;;;;;23.38;3.22;;;;;;;8.87;100.00;100090.31;6249515;22;20011;-73
2023/03/24 06:39:17;;;;;;;11.98;2.42;;;;;;;8.75;100.00;100069.72;6277694;22;20075;-76
2023/03/24 06:41:43;;;;;;;15.40;3.25;;;;;;;8.73;100.00;100072.41;6277164;22;20000;-73
2023/03/24 06:44:08;;;;;;;12.25;2.70;;;;;;;9.62;99.92;100103.16;6276941;22;20023;-75
2023/03/24 06:46:34;;;;;;;11.05;2.60;;;;;;;10.42;94.82;100082.81;6277390;22;20000;-74
2023/03/24 06:48:59;;;;;;;11.38;2.40;;;;;;;11.04;89.22;100079.81;6276922;22;20004;-72
2023/03/24 06:51:24;;;;;;;11.68;2.55;;;;;;;11.81;85.91;100097.94;6277129;22;20003;-73
2023/03/24 06:53:50;;;;;;;11.80;2.83;;;;;;;12.33;82.91;100098.91;6277077;22;20007;-73
2023/03/24 06:56:17;;;;;;;11.55;2.38;;;;;;;12.46;79.13;100080.59;6277099;22;20004;-75
2023/03/24 06:58:45;;;;;;;9.55;2.20;;;;;;;12.78;78.72;100106.38;6276883;22;20003;-76
2023/03/24 07:01:11;;;;;;;9.45;2.78;;;;;;;12.99;77.32;100098.59;6277033;22;20425;-73
2023/03/24 07:03:43;;;;;;;10.40;2.63;;;;;;;12.89;76.26;100103.75;6276856;22;20053;-77
2023/03/24 07:06:09;;;;;;;9.80;2.53;;;;;;;12.44;79.25;100098.84;6249692;22;20310;-74
2023/03/24 07:08:35;;;;;;;11.52;2.47;;;;;;;12.25;80.62;100103.88;6276948;22;20086;-76
2023/03/24 07:11:01;;;;;;;11.32;2.10;;;;;;;11.64;82.38;100095.84;6277181;22;20129;-75
2023/03/24 07:13:27;;;;;;;12.75;2.70;;;;;;;11.15;85.66;100110.00;6277378;22;20062;-75
2023/03/24 07:15:52;;;;;;;11.68;2.80;;;;;;;10.52;88.50;100072.59;6276752;22;20000;-74
2023/03/24 07:18:18;;;;;;;11.30;2.35;;;;;;;10.37;90.94;100097.78;6276872;22;20007;-75
2023/03/24 07:20:44;;;;;;;11.32;2.85;;;;;;;10.28;92.17;100116.53;6250104;22;20087;-78
2023/03/24 07:23:09;;;;;;;13.07;2.83;;;;;;;10.27;93.24;100135.53;6276669;22;20039;-75
2023/03/24 07:25:35;;;;;;;8.95;2.70;;;;;;;10.21;93.54;100131.59;6277100;22;20079;-75
2023/03/24 07:28:00;;;;;;;13.45;2.40;;;;;;;10.21;94.68;100141.09;6276779;22;20069;-75
2023/03/24 07:30:26;;;;;;;11.52;2.17;;;;;;;10.12;94.92;100123.69;6276728;22;20148;-76
2023/03/24 07:32:53;;;;;;;13.55;2.70;;;;;;;9.91;94.95;100088.19;6276756;22;20451;-74
2023/03/24 07:35:18;;;;;;;17.85;3.33;;;;;;;10.24;94.95;100153.81;6276887;22;20079;-74
2023/03/24 07:40:24;;;;;;;11.38;2.58;;;;;;;10.28;95.22;100139.75;6278290;22;20035;-71
2023/03/24 07:42:59;;;;;;;13.65;2.92;;;;;;;9.06;94.61;99944.84;6256612;22;20099;-71
2023/03/24 07:45:25;;;;;;;12.75;3.15;;;;;;;10.33;94.90;100151.41;6245833;23;20015;-73
2023/03/24 07:47:55;;;;;;;14.73;3.10;;;;;;;10.41;94.33;100148.22;6245956;23;19996;-72
2023/03/24 07:50:21;;;;;;;14.07;3.20;;;;;;;9.86;94.55;100053.38;6245527;23;20371;-71
2023/03/24 07:53:01;;;;;;;15.80;3.40;;;;;;;9.58;94.00;99998.63;6245860;23;20275;-75
2023/03/24 07:55:43;;;;;;;14.85;2.80;;;;;;;10.76;93.56;100155.97;6245612;23;20054;-73
2023/03/24 07:58:08;;;;;;;;;;;;;;;10.91;92.58;100157.44;6246383;23;20050;-71
2023/03/24 08:00:34;;;;;;;9.57;2.70;;;;;;;11.12;90.91;100160.16;6245427;23;19911;-74
2023/03/24 08:02:59;;;;;;;14.25;3.25;;;;;;;11.32;90.17;100168.97;6245953;23;20023;-75
2023/03/24 08:05:28;;;;;;;13.65;3.00;;;;;;;11.42;88.94;100171.69;6245793;23;20005;-75
2023/03/24 08:07:54;;;;;;;13.68;3.10;;;;;;;11.45;88.79;100168.84;6245704;23;20011;-77
2023/03/24 08:10:29;;;;;;;16.05;3.17;;;;;;;11.47;88.12;100179.88;6245673;23;20004;-75
2023/03/24 08:12:55;;;;;;;15.88;2.70;;;;;;;10.99;88.36;100125.81;6245885;23;20016;-78
2023/03/24 08:15:22;;;;;;;16.40;3.70;;;;;;;11.23;88.25;100179.19;6245847;23;20413;-73
2023/03/24 08:17:48;;;;;;;14.68;2.78;;;;;;;11.01;89.42;100180.81;6245830;23;20004;-74
2023/03/24 08:20:14;;;;;;;14.20;3.13;;;;;;;10.91;89.87;100182.41;6246062;23;20456;-75
2023/03/24 08:22:42;;;;;;;14.65;3.35;;;;;;;10.84;90.54;100181.25;6218432;23;20057;-75
2023/03/24 08:25:11;;;;;;;10.70;2.92;;;;;;;10.69;91.63;100166.88;6245709;23;20000;-73
2023/03/24 08:27:38;;;;;;;9.98;3.08;;;;;;;10.88;91.50;100190.41;6245690;23;20075;-76
2023/03/24 08:30:06;;;;;;;10.88;2.92;;;;;;;10.85;91.90;100175.13;6245742;23;20008;-75
2023/03/24 08:32:32;;;;;;;12.45;3.05;;;;;;;10.79;91.18;100184.16;6245788;23;20445;-74
2023/03/24 08:34:57;;;;;;;13.15;3.20;;;;;;;10.82;91.42;100176.19;6246292;23;20034;-75
2023/03/24 08:37:22;;;;;;;13.30;2.78;;;;;;;10.90;90.39;100176.44;6247998;23;20000;-75
2023/03/24 08:39:48;;;;;;;13.63;3.40;;;;;;;11.28;90.78;100197.75;6247965;23;20004;-77
2023/03/24 08:42:13;;;;;;;10.40;3.25;;;;;;;11.56;89.25;100204.22;6255228;22;20012;-75
2023/03/24 08:44:38;;;;;;;15.63;3.38;;;;;;;11.49;87.54;100190.94;6250297;22;20329;-77
2023/03/24 08:47:04;;;;;;;14.35;3.00;;;;;;;11.60;87.40;100201.28;6278147;22;20014;-75
2023/03/24 08:49:29;;;;;;;12.30;3.13;;;;;;;11.63;86.91;100210.56;6278314;22;20008;-75
2023/03/24 08:51:55;;;;;;;14.80;3.58;;;;;;;11.72;86.83;100218.44;6277564;22;19999;-75
2023/03/24 08:54:22;;;;;;;14.60;4.03;;;;;;;11.78;86.49;100220.53;6278359;22;20004;-76
2023/03/24 08:56:48;;;;;;;14.40;3.17;;;;;;;11.75;85.61;100217.38;6277889;22;20007;-77
2023/03/24 08:59:13;;;;;;;11.57;3.00;;;;;;;11.67;85.84;100212.78;6278357;22;20003;-75
2023/03/24 09:01:39;;;;;;;12.93;2.80;;;;;;;11.66;85.57;100216.31;6278082;22;20321;-75
2023/03/24 09:04:04;;;;;;;11.40;3.00;;;;;;;11.55;86.84;100220.69;6277838;22;20390;-78
2023/03/24 09:06:31;;;;;;;13.70;3.03;;;;;;;11.35;86.60;100215.25;6278411;22;20372;-80
2023/03/24 09:08:56;;;;;;;11.23;2.75;;;;;;;11.42;87.07;100224.19;6250877;22;20004;-78
2023/03/24 09:11:22;;;;;;;10.20;3.35;;;;;;;11.47;85.01;100221.25;6276612;22;20053;-76
2023/03/24 09:13:48;;;;;;;11.50;3.70;;;;;;;11.52;85.14;100224.31;6278068;22;20083;-79
2023/03/24 09:16:14;;;;;;;10.05;2.80;;;;;;;11.62;85.57;100225.25;6278131;22;20027;-78
2023/03/24 09:18:40;;;;;;;11.40;2.92;;;;;;;11.82;84.97;100226.34;6278169;22;20429;-80
2023/03/24 09:21:06;;;;;;;15.30;3.58;;;;;;;11.97;83.61;100227.72;6277749;22;20004;-78
2023/03/24 09:23:32;;;;;;;13.27;3.22;;;;;;;12.01;84.36;100205.03;6276578;22;20057;-75
2023/03/24 09:25:58;;;;;;;11.32;3.42;;;;;;;12.35;82.65;100216.94;6251257;22;20008;-73
2023/03/24 09:28:24;;;;;;;10.73;4.25;;;;;;;12.37;81.67;100224.56;6277705;22;20363;-75
2023/03/24 09:30:50;;;;;;;12.05;3.10;;;;;;;12.24;80.58;100180.72;6277723;22;19999;-80
2023/03/24 09:33:17;;;;;;;14.30;4.05;;;;;;;12.53;80.54;100234.53;6250672;22;20314;-77
2023/03/24 09:36:05;;;;;;;13.73;3.25;;;;;;;12.52;81.36;100235.47;6272986;22;20015;-75
2023/03/24 09:38:36;;;;;;;15.25;4.13;;;;;;;11.16;81.59;100078.03;6249813;22;20016;-77
2023/03/24 09:44:54;;;;;;;11.07;3.75;;;;;;;11.71;88.15;100247.84;6153641;23;20108;-76
2023/03/24 09:59:58;;;;;;;10.45;3.53;;;;;;;10.69;89.47;100151.38;6240431;22;20026;-76
2023/03/24 10:02:28;;;;;;;12.98;3.75;;;;;;;10.53;91.83;100095.72;6277122;22;20429;-73
2023/03/24 10:23:25;;;;;;;11.45;3.47;;;;;;;12.86;81.93;100275.81;6277120;22;20509;-80
2023/03/24 10:29:21;;;;;;;8.77;2.78;;;;;;;13.05;78.85;100282.94;6276436;22;20416;-79
2023/03/24 10:35:30;;;;;;;11.65;3.28;;;;;;;12.75;78.75;100202.50;6183286;23;20040;-76
2023/03/24 10:38:14;;;;;;;12.30;3.00;;;;;;;13.42;80.08;100266.97;6183638;23;20013;-74
2023/03/24 10:40:40;;;;;;;10.00;2.95;;;;;;;13.69;78.69;100258.63;6158757;23;20004;-74
2023/03/24 10:43:08;;;;;;;8.65;2.50;;;;;;;13.87;74.26;100267.44;6183531;23;20015;-75
2023/03/24 10:45:35;;;;;;;7.68;2.42;;;;;;;13.73;72.33;100268.59;6183757;23;20068;-77
2023/03/24 10:48:02;;;;;;;11.07;2.70;;;;;;;13.65;73.41;100236.47;6158248;23;20075;-80
2023/03/24 10:50:30;;;;;;;11.63;3.17;;;;;;;13.87;70.66;100233.69;6183705;23;20120;-75
2023/03/24 10:52:56;;;;;;;10.02;2.33;;;;;;;14.38;73.81;100268.25;6183442;23;20009;-75
2023/03/24 10:55:27;;;;;;;11.90;2.67;;;;;;;14.56;69.75;100251.91;6183690;23;20075;-77
2023/03/24 10:57:54;;;;;;;;;;;;;;;14.65;71.06;100255.47;6183576;23;20020;-75
2023/03/24 11:00:47;;;;;;;11.77;2.55;;;;;;;13.91;70.44;100229.06;6237228;22;20324;-75
2023/03/24 11:03:34;;;;;;;9.45;2.38;;;;;;;12.82;70.33;100100.03;6276970;22;20012;-76
2023/03/24 11:06:49;;;;;;;8.27;2.25;;;;;;;13.29;70.76;100171.22;6276962;22;20010;-76
2023/03/24 11:12:30;;;;;;;8.63;1.98;;;;;;;13.23;68.53;100137.22;6276270;22;20102;-80
2023/03/24 11:15:31;;;;;;;7.85;1.92;;;;;;;14.09;68.63;100263.81;6276601;22;20035;-79
2023/03/24 11:18:25;;;;;;;10.02;2.63;;;;;;;14.10;68.92;100267.22;6276411;22;20437;-78
2023/03/24 11:21:05;;;;;;;7.45;1.92;;;;;;;14.11;68.31;100251.50;6276756;22;20425;-78
2023/03/24 11:23:43;;;;;;;8.20;2.15;;;;;;;13.90;66.52;100255.97;6276923;22;20004;-76
2023/03/24 11:26:18;;;;;;;5.80;2.13;;;;;;;13.25;69.17;100226.88;6276650;22;20011;-77
2023/03/24 11:28:49;;;;;;;8.60;2.65;;;;;;;13.25;71.16;100265.75;6276580;22;20417;-75
2023/03/24 11:31:23;;;;;;;7.63;2.45;;;;;;;13.04;71.30;100265.72;6277102;22;20074;-78
2023/03/24 11:33:59;;;;;;;6.32;2.13;;;;;;;13.02;72.77;100265.03;6276578;22;19995;-80
2023/03/24 11:36:27;;;;;;;8.15;2.53;;;;;;;13.29;72.13;100261.97;6276540;22;20421;-73
2023/03/24 11:39:22;;;;;;;9.27;2.67;;;;;;;13.63;72.23;100259.97;6277229;22;20003;-76
2023/03/24 11:42:02;;;;;;;10.82;2.50;;;;;;;13.82;71.51;100266.19;6276234;22;20008;-76
2023/03/24 11:44:37;;;;;;;7.67;2.27;;;;;;;13.76;72.43;100254.53;6276562;22;20010;-75
2023/03/24 11:47:28;;;;;;;9.48;2.38;;;;;;;13.36;73.57;100233.75;6277126;22;20000;-74
2023/03/24 11:50:35;;;;;;;10.30;2.47;;;;;;;13.05;75.48;100251.00;6275959;22;20014;-74
2023/03/24 11:53:24;;;;;;;12.05;2.50;;;;;;;12.80;80.38;100284.13;6276949;22;20352;-75
2023/03/24 11:56:02;;;;;;;12.05;3.20;;;;;;;12.66;82.97;100283.56;6276871;22;20381;-80
2023/03/24 11:58:39;;;;;;;10.15;2.30;;;;;;;12.56;80.80;100293.84;6276262;22;20461;-74
2023/03/24 12:06:22;;;;;;;9.90;2.88;;;;;;;12.15;84.18;100316.03;6273491;22;20075;-72
2023/03/24 12:08:59;;;;;;;14.77;3.03;;;;;;;12.15;85.13;100310.88;6276309;22;20369;-77
2023/03/24 12:11:48;;;;;;;9.30;2.63;;;;;;;12.31;85.08;100306.16;6248362;22;20039;-73
2023/03/24 12:14:22;;;;;;;10.18;2.20;;;;;;;12.53;83.23;100310.47;6276498;22;20035;-73
2023/03/24 12:17:07;;;;;;;8.10;2.03;;;;;;;12.51;81.10;100308.94;6276681;22;20064;-74
2023/03/24 12:20:05;;;;;;;6.28;1.83;;;;;;;12.30;81.66;100293.34;6274589;22;20057;-74
2023/03/24 12:23:00;;;;;;;7.20;1.92;;;;;;;12.31;82.60;100300.97;6276850;22;20141;-75
2023/03/24 12:25:53;;;;;;;9.60;2.00;;;;;;;12.46;83.86;100314.47;6276419;22;20030;-74
2023/03/24 12:28:53;;;;;;;4.50;1.90;;;;;;;12.71;80.79;100302.16;6276689;22;20306;-76
2023/03/24 12:31:50;;;;;;;6.72;1.55;;;;;;;12.82;79.85;100294.34;6260104;22;20026;-75
2023/03/24 12:34:51;;;;;;;6.10;1.33;;;;;;;12.82;80.99;100290.00;6276404;22;20095;-73
2023/03/24 12:37:40;;;;;;;3.38;0.90;;;;;;;12.54;80.64;100290.56;6274500;22;20065;-70